Time;durP1;ratioP1;P1;durP2;ratioP2;P2;SDS_P1;SDS_P2;PMS_P1;PMS_P2;Temp;Humidity;BMP_temperature;BMP_pressure;BME280_temperature;BME280_humidity;BME280_pressure;Samples;Min_cycle;Max_cycle;Signal;HPM_P1;HPM_P2
2021/07/25 00:00:44;;;;;;;37.70;14.75;;;;;;;17.28;100.00;101095.83;1777285;78;21169;-81
2021/07/25 00:03:10;;;;;;;33.85;14.05;;;;;;;17.26;100.00;101092.02;1776183;78;21012;-81
2021/07/25 00:05:40;;;;;;;39.27;13.98;;;;;;;17.24;100.00;101090.97;1784582;80;20971;-81
2021/07/25 00:08:11;;;;;;;40.90;14.38;;;;;;;17.24;100.00;101091.52;1780846;80;21113;-81
2021/07/25 00:10:34;;;;;;;35.35;13.68;;;;;;;17.11;100.00;101073.97;1775906;80;21536;-82
2021/07/25 00:13:00;;;;;;;35.75;14.03;;;;;;;17.19;100.00;101088.30;1773794;80;21029;-81
2021/07/25 00:15:26;;;;;;;39.03;15.05;;;;;;;17.15;100.00;101083.75;1781117;80;20839;-78
2021/07/25 00:17:52;;;;;;;48.98;14.28;;;;;;;17.12;100.00;101086.50;1780032;80;20988;-81
2021/07/25 00:20:17;;;;;;;32.95;12.70;;;;;;;17.12;100.00;101086.50;1784571;78;21006;-82
2021/07/25 00:22:43;;;;;;;36.42;13.53;;;;;;;17.10;100.00;101087.33;1782116;80;20975;-81
2021/07/25 00:25:18;;;;;;;28.95;11.88;;;;;;;17.09;100.00;101087.61;1788310;78;21636;-81
2021/07/25 00:27:41;;;;;;;36.90;12.82;;;;;;;17.05;100.00;101091.47;1773617;79;20985;-81
2021/07/25 00:30:10;;;;;;;42.15;12.85;;;;;;;17.05;100.00;101091.47;1784496;80;20963;-80
2021/07/25 00:32:36;;;;;;;38.08;14.18;;;;;;;17.01;100.00;101098.05;1780792;78;21528;-81
2021/07/25 00:35:02;;;;;;;37.15;12.88;;;;;;;17.01;100.00;101098.05;1777697;80;21106;-81
2021/07/25 00:37:29;;;;;;;31.07;11.55;;;;;;;17.01;100.00;101091.80;1780865;80;21127;-81
2021/07/25 00:39:55;;;;;;;32.42;12.80;;;;;;;16.86;100.00;101079.18;1784294;78;21048;-81
2021/07/25 00:42:21;;;;;;;28.70;10.63;;;;;;;16.86;100.00;101079.18;1781004;78;20968;-78
2021/07/25 00:44:47;;;;;;;31.50;12.50;;;;;;;16.93;100.00;101097.33;1784451;80;20975;-81
2021/07/25 00:47:13;;;;;;;28.32;12.45;;;;;;;16.89;100.00;101091.41;1777778;80;21004;-81
2021/07/25 00:49:39;;;;;;;34.92;12.30;;;;;;;16.86;100.00;101091.98;1781560;80;21305;-81
2021/07/25 00:52:08;;;;;;;32.45;11.18;;;;;;;16.86;100.00;101098.23;1784533;80;20995;-79
2021/07/25 00:54:38;;;;;;;30.88;11.22;;;;;;;16.86;100.00;101095.52;1784644;79;20916;-84
2021/07/25 00:57:04;;;;;;;31.02;11.68;;;;;;;16.85;100.00;101100.68;1784335;78;20988;-83
2021/07/25 00:59:30;;;;;;;31.77;11.83;;;;;;;16.76;100.00;101088.81;1782007;80;20887;-80
2021/07/25 01:01:56;;;;;;;29.90;12.43;;;;;;;16.80;100.00;101104.84;1754878;79;21418;-81
2021/07/25 01:04:56;;;;;;;30.65;11.20;;;;;;;16.78;100.00;101099.67;1778050;79;20891;-81
2021/07/25 01:08:01;;;;;;;26.02;10.70;;;;;;;16.76;100.00;101105.14;1720655;82;21112;-80
2021/07/25 01:10:31;;;;;;;28.40;11.95;;;;;;;16.73;100.00;101111.94;1715766;82;21156;-81
2021/07/25 01:13:02;;;;;;;31.17;11.68;;;;;;;16.68;100.00;101118.81;1720299;82;20998;-80
2021/07/25 01:15:30;;;;;;;27.37;11.97;;;;;;;16.66;100.00;101120.20;1726200;81;21314;-80
2021/07/25 01:17:59;;;;;;;28.23;10.80;;;;;;;16.62;100.00;101120.49;1726939;80;21068;-78
2021/07/25 01:20:26;;;;;;;26.20;11.50;;;;;;;16.57;100.00;101122.17;1726656;81;21724;-81
2021/07/25 01:22:55;;;;;;;31.97;11.25;;;;;;;16.56;100.00;101123.28;1743159;82;21112;-81
2021/07/25 01:25:24;;;;;;;25.90;11.25;;;;;;;16.56;100.00;101123.28;1729525;82;21712;-81
2021/07/25 01:28:01;;;;;;;30.57;12.23;;;;;;;16.56;100.00;101120.56;1738684;82;21883;-80
2021/07/25 01:30:31;;;;;;;26.42;11.57;;;;;;;16.58;100.00;101117.54;1732988;82;21568;-80
2021/07/25 01:33:05;;;;;;;24.77;11.75;;;;;;;16.50;100.00;101104.03;1722968;82;21170;-81
2021/07/25 01:35:34;;;;;;;27.50;12.00;;;;;;;16.50;100.00;101118.16;1730969;82;21017;-81
2021/07/25 01:38:00;;;;;;;24.57;10.72;;;;;;;16.52;100.00;101122.22;1737938;82;21053;-80
2021/07/25 01:40:27;;;;;;;29.32;12.03;;;;;;;16.46;100.00;101117.92;1718875;82;22110;-81
2021/07/25 01:42:55;;;;;;;31.77;11.73;;;;;;;16.45;100.00;101114.14;1743099;82;21042;-79
2021/07/25 01:45:22;;;;;;;28.30;11.57;;;;;;;16.45;100.00;101114.14;1768674;80;21516;-80
2021/07/25 01:47:48;;;;;;;27.67;11.05;;;;;;;16.46;100.00;101119.84;1754987;79;21109;-81
2021/07/25 01:50:15;;;;;;;28.15;12.20;;;;;;;16.37;100.00;101101.16;1781521;80;21982;-81
2021/07/25 01:52:43;;;;;;;27.70;11.73;;;;;;;16.43;100.00;101121.22;1777158;80;21121;-81
2021/07/25 01:55:10;;;;;;;25.48;10.80;;;;;;;16.46;100.00;101123.92;1756225;80;21086;-80
2021/07/25 01:57:37;;;;;;;29.65;11.18;;;;;;;16.45;100.00;101131.28;1773695;78;21048;-81
2021/07/25 02:00:08;;;;;;;30.72;11.43;;;;;;;16.37;100.00;101127.00;1777252;77;21052;-80
2021/07/25 02:02:34;;;;;;;26.15;11.48;;;;;;;16.35;100.00;101131.34;1766470;79;20960;-81
2021/07/25 02:05:00;;;;;;;29.55;11.78;;;;;;;16.35;100.00;101132.70;1781332;80;21780;-81
2021/07/25 02:07:26;;;;;;;26.55;12.13;;;;;;;16.35;100.00;101132.70;1773041;80;21464;-78
2021/07/25 02:09:52;;;;;;;25.75;11.15;;;;;;;16.38;100.00;101127.25;1783319;77;20949;-80
2021/07/25 02:12:17;;;;;;;27.45;10.93;;;;;;;16.40;100.00;101129.14;1774955;77;21536;-82
2021/07/25 02:14:43;;;;;;;32.00;12.40;;;;;;;16.42;100.00;101137.84;1773602;80;20878;-81
2021/07/25 02:17:09;;;;;;;33.80;11.88;;;;;;;16.39;100.00;101137.86;1767236;80;21914;-81
2021/07/25 02:19:36;;;;;;;26.90;11.80;;;;;;;16.44;100.00;101138.34;1786741;80;21078;-81
2021/07/25 02:22:03;;;;;;;29.45;11.68;;;;;;;16.46;100.00;101141.60;1767040;80;21032;-81
2021/07/25 02:24:29;;;;;;;33.40;11.08;;;;;;;16.50;100.00;101141.28;1773769;78;20979;-81
2021/07/25 02:26:55;;;;;;;25.25;11.35;;;;;;;16.53;100.00;101140.19;1779606;78;20928;-80
2021/07/25 02:29:21;;;;;;;29.77;11.50;;;;;;;16.59;100.00;101139.59;1765340;80;20951;-83
2021/07/25 02:31:47;;;;;;;26.55;11.50;;;;;;;16.61;100.00;101141.45;1768374;79;21203;-80
2021/07/25 02:34:13;;;;;;;32.40;11.90;;;;;;;16.77;100.00;101149.78;1784081;78;21198;-80
2021/07/25 02:36:40;;;;;;;30.62;12.58;;;;;;;16.84;100.00;101148.63;1784469;78;21490;-80
2021/07/25 02:39:06;;;;;;;31.70;13.03;;;;;;;16.84;100.00;101148.63;1780536;80;21151;-80
2021/07/25 02:41:33;;;;;;;29.40;12.40;;;;;;;16.92;100.00;101149.36;1781117;78;21142;-81
2021/07/25 02:43:59;;;;;;;27.00;12.13;;;;;;;17.00;100.00;101145.98;1788009;78;21463;-80
2021/07/25 02:46:24;;;;;;;25.40;11.08;;;;;;;17.08;100.00;101148.08;1784399;78;20879;-80
2021/07/25 02:48:50;;;;;;;26.40;10.60;;;;;;;17.17;100.00;101153.14;1788078;78;21591;-80
2021/07/25 02:51:16;;;;;;;30.77;11.28;;;;;;;17.26;100.00;101151.95;1779653;78;20879;-79
2021/07/25 02:53:42;;;;;;;29.07;11.18;;;;;;;17.34;100.00;101154.59;1782281;78;21154;-80
2021/07/25 02:56:08;;;;;;;26.10;11.75;;;;;;;17.42;100.00;101160.77;1777883;80;20947;-79
2021/07/25 02:58:34;;;;;;;30.60;11.53;;;;;;;17.49;100.00;101159.84;1771615;79;20880;-86
2021/07/25 03:01:13;;;;;;;34.18;12.30;;;;;;;17.60;100.00;101159.98;1782573;78;20852;-79
2021/07/25 03:03:40;;;;;;;25.65;11.45;;;;;;;17.71;100.00;101157.94;1766341;81;21028;-80
2021/07/25 03:06:06;;;;;;;31.90;13.00;;;;;;;17.86;100.00;101162.39;1757073;80;21995;-76
2021/07/25 03:08:33;;;;;;;35.45;13.98;;;;;;;18.02;100.00;101166.50;1754375;80;21105;-79
2021/07/25 03:10:58;;;;;;;35.40;14.47;;;;;;;18.19;100.00;101162.44;1753849;80;21581;-79
2021/07/25 03:13:26;;;;;;;34.75;14.53;;;;;;;18.29;100.00;101169.08;1755032;80;20881;-77
2021/07/25 03:15:52;;;;;;;39.58;14.43;;;;;;;18.34;100.00;101166.28;1768461;81;20957;-79
2021/07/25 03:18:18;;;;;;;43.80;13.50;;;;;;;18.37;100.00;101166.49;1735130;80;21074;-78
2021/07/25 03:20:44;;;;;;;31.90;12.75;;;;;;;18.50;100.00;101168.19;1760287;80;20980;-84
2021/07/25 03:23:10;;;;;;;27.13;11.30;;;;;;;18.71;100.00;101168.67;1754856;80;21179;-78
2021/07/25 03:25:36;;;;;;;30.23;12.33;;;;;;;19.21;100.00;101170.22;1766043;80;21059;-78
2021/07/25 03:28:03;;;;;;;29.72;11.73;;;;;;;19.92;100.00;101171.45;1752119;80;21093;-79
2021/07/25 03:30:28;;;;;;;30.45;12.03;;;;;;;20.54;100.00;101177.66;1758293;80;22110;-78
2021/07/25 03:32:54;;;;;;;32.05;12.00;;;;;;;21.11;100.00;101175.59;1763825;80;20956;-80
2021/07/25 03:35:20;;;;;;;24.70;10.55;;;;;;;21.65;100.00;101173.53;1753910;80;21729;-84
2021/07/25 03:37:46;;;;;;;26.73;10.95;;;;;;;22.28;100.00;101179.55;1726824;81;21161;-78
2021/07/25 03:40:14;;;;;;;27.07;11.12;;;;;;;22.94;100.00;101181.96;1759470;81;20908;-79
2021/07/25 03:42:40;;;;;;;25.32;10.45;;;;;;;23.41;100.00;101180.56;1764403;81;21105;-79
2021/07/25 03:45:07;;;;;;;24.40;10.35;;;;;;;23.94;100.00;101189.30;1755995;80;20864;-78
2021/07/25 03:47:34;;;;;;;23.77;9.68;;;;;;;24.48;100.00;101190.16;1761753;80;21191;-79
2021/07/25 03:49:59;;;;;;;30.62;10.48;;;;;;;24.92;100.00;101192.45;1760573;80;21053;-80
2021/07/25 03:52:26;;;;;;;18.45;9.43;;;;;;;25.48;100.00;101191.92;1762571;80;21610;-77
2021/07/25 03:54:52;;;;;;;21.62;10.25;;;;;;;26.12;100.00;101190.28;1765317;80;21154;-80
2021/07/25 03:57:18;;;;;;;28.42;9.80;;;;;;;26.70;100.00;101192.11;1753618;80;20879;-79
2021/07/25 03:59:44;;;;;;;20.77;9.38;;;;;;;27.19;100.00;101191.80;1765341;80;20996;-83
2021/07/25 04:02:10;;;;;;;22.82;9.18;;;;;;;27.52;100.00;101191.38;1784390;80;20891;-79
2021/07/25 04:04:35;;;;;;;17.80;9.18;;;;;;;27.93;100.00;101193.30;1777250;78;20857;-79
2021/07/25 04:07:05;;;;;;;18.12;8.65;;;;;;;28.33;100.00;101189.36;1780973;78;21143;-80
2021/07/25 04:09:30;;;;;;;17.62;8.40;;;;;;;28.56;96.62;101191.38;1786844;78;21569;-80
2021/07/25 04:11:56;;;;;;;23.95;9.08;;;;;;;28.88;94.47;101198.89;1788072;78;20891;-78
2021/07/25 04:14:23;;;;;;;20.80;7.85;;;;;;;29.17;91.55;101201.59;1780850;78;21558;-83
2021/07/25 04:16:49;;;;;;;20.75;8.33;;;;;;;29.52;84.77;101198.55;1773275;80;21617;-81
2021/07/25 04:19:16;;;;;;;18.20;8.18;;;;;;;29.61;83.15;101196.30;1787724;78;21052;-80
2021/07/25 04:21:42;;;;;;;20.02;8.03;;;;;;;29.71;81.56;101195.46;1777110;78;21061;-80
2021/07/25 04:24:09;;;;;;;24.60;7.65;;;;;;;30.07;72.87;101200.31;1784519;78;20848;-80
2021/07/25 04:26:35;;;;;;;19.98;8.10;;;;;;;29.74;71.59;101205.26;1777189;78;21487;-81
2021/07/25 04:29:01;;;;;;;14.05;7.60;;;;;;;30.01;74.73;101203.81;1784535;78;21070;-81
2021/07/25 04:31:28;;;;;;;16.37;7.20;;;;;;;30.47;65.68;101199.39;1788120;78;21295;-80
2021/07/25 04:33:55;;;;;;;17.25;7.92;;;;;;;30.54;69.41;101203.06;1780697;78;21496;-88
2021/07/25 04:36:25;;;;;;;14.50;7.15;;;;;;;30.94;66.08;101196.48;1787943;80;21069;-79
2021/07/25 04:38:55;;;;;;;16.17;7.35;;;;;;;31.33;63.54;101207.16;1788033;78;21010;-81
2021/07/25 04:41:24;;;;;;;16.00;7.28;;;;;;;31.74;61.67;101207.01;1722166;81;21127;-84
2021/07/25 04:44:16;;;;;;;24.67;8.03;;;;;;;32.18;60.06;101209.65;1731968;82;21337;-81
2021/07/25 04:46:50;;;;;;;18.73;7.33;;;;;;;32.66;57.35;101209.38;1723056;81;21001;-80
2021/07/25 04:49:16;;;;;;;21.05;7.47;;;;;;;32.48;53.35;101211.36;1681113;84;21030;-78
2021/07/25 04:51:45;;;;;;;14.80;7.00;;;;;;;32.10;51.86;101210.80;1684439;83;20955;-81
2021/07/25 04:54:15;;;;;;;14.40;6.35;;;;;;;32.10;55.95;101213.00;1667207;84;21157;-80
2021/07/25 04:56:59;;;;;;;19.25;8.38;;;;;;;32.79;51.93;101211.98;1624745;86;22021;-81
2021/07/25 04:59:36;;;;;;;13.53;6.92;;;;;;;32.82;50.11;101215.97;1623446;86;21423;-81
2021/07/25 05:02:06;;;;;;;14.55;6.75;;;;;;;33.07;51.75;101213.83;1576452;88;21109;-81
2021/07/25 05:04:33;;;;;;;14.28;6.90;;;;;;;33.44;47.88;101216.98;1576451;88;21651;-81
2021/07/25 05:06:59;;;;;;;15.48;7.12;;;;;;;32.92;47.09;101218.59;1596264;88;21086;-81
2021/07/25 05:09:26;;;;;;;17.15;6.90;;;;;;;32.41;49.39;101223.24;1604612;88;21479;-81
2021/07/25 05:12:12;;;;;;;15.95;6.78;;;;;;;32.84;48.11;101226.75;1603337;88;21044;-81
2021/07/25 05:15:05;;;;;;;14.30;6.62;;;;;;;32.71;49.42;101226.33;1610632;87;21428;-80
2021/07/25 05:17:45;;;;;;;14.80;6.87;;;;;;;33.46;49.85;101229.94;1611163;88;21046;-78
2021/07/25 05:20:15;;;;;;;11.30;6.45;;;;;;;34.00;46.73;101226.22;1552059;91;21142;-81
2021/07/25 05:22:59;;;;;;;15.05;6.33;;;;;;;33.87;44.74;101230.87;1543572;90;21120;-81
2021/07/25 05:25:25;;;;;;;17.50;7.35;;;;;;;33.68;45.13;101228.55;1551435;90;21115;-79
2021/07/25 05:27:54;;;;;;;15.60;6.20;;;;;;;33.55;46.00;101235.75;1562239;90;21095;-81
2021/07/25 05:30:23;;;;;;;12.68;6.03;;;;;;;34.22;45.37;101243.16;1543592;90;21168;-82
2021/07/25 05:32:50;;;;;;;9.68;5.75;;;;;;;34.68;43.91;101237.11;1558001;91;21007;-81
2021/07/25 05:35:16;;;;;;;14.75;5.62;;;;;;;34.75;41.68;101232.88;1561024;91;21179;-81
2021/07/25 05:37:43;;;;;;;17.05;6.00;;;;;;;34.57;41.30;101242.19;1547261;91;21107;-82
2021/07/25 05:40:12;;;;;;;21.02;6.75;;;;;;;34.98;41.56;101237.30;1608592;86;21135;-80
2021/07/25 05:42:40;;;;;;;9.35;6.15;;;;;;;35.34;41.44;101241.82;1657344;85;21115;-81
2021/07/25 05:45:08;;;;;;;12.43;5.92;;;;;;;36.14;40.72;101233.55;1660007;85;21100;-79
2021/07/25 05:47:38;;;;;;;9.80;5.97;;;;;;;36.08;38.76;101236.03;1653128;84;21186;-82
2021/07/25 05:50:06;;;;;;;13.75;6.35;;;;;;;35.77;38.47;101236.59;1642031;86;21036;-81
2021/07/25 05:52:55;;;;;;;11.83;5.87;;;;;;;35.66;37.54;101235.30;1643337;85;32691;-82
2021/07/25 05:55:30;;;;;;;14.60;5.75;;;;;;;35.54;38.00;101235.02;1633117;86;21037;-82
2021/07/25 05:57:56;;;;;;;11.57;5.65;;;;;;;36.19;38.49;101242.12;1687773;82;21121;-82
2021/07/25 06:00:25;;;;;;;19.12;6.28;;;;;;;36.81;38.49;101237.42;1736812;80;21831;-81
2021/07/25 06:02:54;;;;;;;10.58;6.33;;;;;;;37.13;35.66;101232.53;1760789;80;21012;-81
2021/07/25 06:05:21;;;;;;;12.63;6.30;;;;;;;36.96;35.26;101237.20;1752012;81;21060;-83
2021/07/25 06:07:47;;;;;;;15.50;6.53;;;;;;;36.76;35.67;101236.49;1747043;81;21044;-81
2021/07/25 06:10:14;;;;;;;12.35;6.33;;;;;;;36.88;35.71;101235.10;1763220;79;21456;-81
2021/07/25 06:12:43;;;;;;;11.40;6.28;;;;;;;37.66;35.99;101235.00;1758210;80;21077;-83
2021/07/25 06:15:11;;;;;;;13.75;6.40;;;;;;;38.28;33.77;101236.13;1748457;80;21046;-83
2021/07/25 06:17:37;;;;;;;13.70;6.45;;;;;;;38.29;34.03;101231.28;1762072;79;21049;-82
2021/07/25 06:20:05;;;;;;;11.85;6.03;;;;;;;38.63;33.59;101235.95;1742734;80;21035;-82
2021/07/25 06:22:40;;;;;;;13.70;6.10;;;;;;;38.52;32.10;101238.22;1743843;81;21027;-84
2021/07/25 06:25:07;;;;;;;8.90;5.97;;;;;;;38.73;32.66;101242.55;1749415;79;21993;-81
2021/07/25 06:27:33;;;;;;;10.23;6.00;;;;;;;39.68;31.82;101241.14;1744766;80;21027;-83
2021/07/25 06:29:58;;;;;;;12.37;6.30;;;;;;;39.74;30.76;101240.20;1742715;81;20892;-83
2021/07/25 06:32:24;;;;;;;11.12;6.08;;;;;;;39.52;30.46;101241.38;1753623;79;20964;-83
2021/07/25 06:34:50;;;;;;;16.15;6.60;;;;;;;39.15;30.06;101244.77;1776917;78;20848;-84
2021/07/25 06:37:17;;;;;;;10.63;6.70;;;;;;;39.49;31.38;101244.30;1775752;78;21949;-84
2021/07/25 06:39:42;;;;;;;13.15;6.65;;;;;;;39.95;30.75;101240.82;1784401;80;21424;-84
2021/07/25 06:42:08;;;;;;;11.78;5.85;;;;;;;41.12;29.90;101244.02;1784333;80;20959;-84
2021/07/25 06:44:35;;;;;;;13.35;5.83;;;;;;;41.39;28.28;101242.08;1784290;78;20883;-84
2021/07/25 06:47:00;;;;;;;11.05;5.90;;;;;;;41.36;28.43;101245.02;1777705;78;21481;-83
2021/07/25 06:49:26;;;;;;;16.07;5.92;;;;;;;41.00;28.61;101254.09;1783816;80;21797;-82
2021/07/25 06:51:52;;;;;;;11.97;6.28;;;;;;;41.08;28.43;101251.22;1775979;78;20959;-85
2021/07/25 06:54:20;;;;;;;13.35;6.67;;;;;;;40.74;28.16;101256.19;1776802;78;20901;-84
2021/07/25 06:56:46;;;;;;;14.30;6.10;;;;;;;40.73;29.62;101253.17;1781076;78;21020;-82
2021/07/25 06:59:12;;;;;;;11.18;6.20;;;;;;;41.88;29.02;101249.22;1788289;78;20982;-82
2021/07/25 07:01:37;;;;;;;13.98;5.80;;;;;;;42.57;27.56;101246.16;1788160;78;21149;-81
2021/07/25 07:04:03;;;;;;;11.73;5.67;;;;;;;42.67;26.28;101255.47;1783986;78;21691;-80
2021/07/25 07:06:29;;;;;;;11.43;5.75;;;;;;;42.32;25.98;101247.14;1781460;78;21066;-81
2021/07/25 07:08:55;;;;;;;10.20;5.60;;;;;;;41.62;27.52;101247.14;1780191;78;20871;-81
2021/07/25 07:11:27;;;;;;;8.08;5.35;;;;;;;41.85;27.13;101249.51;1767606;79;20877;-79
2021/07/25 07:13:54;;;;;;;8.55;5.90;;;;;;;41.67;26.67;101257.88;1776196;78;21132;-81
2021/07/25 07:16:21;;;;;;;9.13;5.35;;;;;;;40.89;26.46;101257.92;1754664;79;21482;-80
2021/07/25 07:18:47;;;;;;;14.78;5.80;;;;;;;40.68;27.48;101261.42;1770095;79;21670;-80
2021/07/25 07:21:13;;;;;;;13.75;5.37;;;;;;;41.24;26.79;101259.38;1761477;79;20845;-81
2021/07/25 07:23:39;;;;;;;9.65;5.28;;;;;;;42.00;27.14;101254.03;1746728;79;20966;-81
2021/07/25 07:26:05;;;;;;;7.75;5.20;;;;;;;42.65;26.30;101256.56;1761245;79;21514;-87
2021/07/25 07:28:31;;;;;;;9.75;5.22;;;;;;;42.35;25.62;101256.13;1753743;80;21070;-80
2021/07/25 07:30:56;;;;;;;15.45;4.85;;;;;;;41.55;25.59;101248.83;1771886;79;21160;-80
2021/07/25 07:33:23;;;;;;;17.60;4.80;;;;;;;41.49;27.35;101250.83;1739075;80;20880;-81
2021/07/25 07:35:50;;;;;;;7.72;5.00;;;;;;;42.32;26.18;101252.81;1760315;79;21519;-81
2021/07/25 07:38:19;;;;;;;10.68;5.40;;;;;;;42.61;25.16;101255.92;1734474;80;21977;-79
2021/07/25 07:40:46;;;;;;;6.72;5.33;;;;;;;42.15;25.47;101253.67;1767611;79;21618;-83
2021/07/25 07:43:16;;;;;;;11.35;5.50;;;;;;;41.52;25.28;101255.56;1754685;79;21488;-83
2021/07/25 07:45:43;;;;;;;10.93;4.72;;;;;;;41.21;26.46;101254.03;1773107;79;21073;-81
2021/07/25 07:48:09;;;;;;;11.00;5.37;;;;;;;41.37;25.58;101258.72;1773333;79;20996;-81
2021/07/25 07:50:36;;;;;;;9.63;4.60;;;;;;;41.25;25.60;101253.90;1751384;79;21056;-84
2021/07/25 07:53:02;;;;;;;9.08;4.40;;;;;;;41.79;25.68;101249.94;1751069;80;21032;-83
2021/07/25 07:55:28;;;;;;;6.20;4.75;;;;;;;41.47;25.52;101249.70;1765142;79;21508;-84
2021/07/25 07:57:54;;;;;;;12.90;5.37;;;;;;;41.49;25.63;101253.66;1742525;79;20973;-82
2021/07/25 08:00:20;;;;;;;12.28;5.50;;;;;;;42.02;25.51;101254.37;1753333;79;20912;-83
2021/07/25 08:02:46;;;;;;;10.08;4.80;;;;;;;42.49;25.33;101254.00;1779761;78;21912;-83
2021/07/25 08:05:12;;;;;;;10.60;4.65;;;;;;;42.17;24.56;101254.61;1769657;79;20838;-84
2021/07/25 08:07:39;;;;;;;12.18;4.70;;;;;;;41.90;25.04;101253.83;1779916;77;21106;-82
2021/07/25 08:10:08;;;;;;;12.07;4.97;;;;;;;42.20;24.25;101254.46;1768934;79;21044;-85
2021/07/25 08:12:35;;;;;;;8.73;5.00;;;;;;;41.99;24.58;101255.30;1758525;80;21141;-79
2021/07/25 08:15:01;;;;;;;14.43;5.00;;;;;;;41.89;24.53;101262.95;1770852;79;21931;-83
2021/07/25 08:17:27;;;;;;;14.60;4.85;;;;;;;41.42;24.51;101260.19;1774251;80;21019;-83
2021/07/25 08:19:53;;;;;;;7.40;4.58;;;;;;;41.10;24.27;101271.98;1765583;80;21647;-84
2021/07/25 08:22:19;;;;;;;9.73;4.80;;;;;;;40.79;24.79;101273.18;1754232;80;20884;-84
2021/07/25 08:24:45;;;;;;;15.48;5.35;;;;;;;40.55;25.21;101269.27;1742408;80;21791;-85
2021/07/25 08:27:11;;;;;;;22.30;5.55;;;;;;;40.79;25.72;101271.77;1720627;81;21486;-85
2021/07/25 08:29:37;;;;;;;6.80;4.58;;;;;;;41.36;25.12;101275.54;1700617;82;21015;-84
2021/07/25 08:32:08;;;;;;;17.17;4.75;;;;;;;40.98;24.32;101276.39;1682939;83;21130;-85
2021/07/25 08:34:34;;;;;;;15.08;4.90;;;;;;;40.92;24.86;101269.73;1670066;84;20993;-84
2021/07/25 08:37:00;;;;;;;11.88;5.12;;;;;;;41.49;24.70;101269.85;1649726;85;21054;-84
2021/07/25 08:39:27;;;;;;;13.03;4.92;;;;;;;41.42;24.55;101265.22;1664786;84;21151;-84
2021/07/25 08:42:06;;;;;;;7.45;4.78;;;;;;;41.55;24.35;101263.77;1659820;85;21027;-84
2021/07/25 08:44:44;;;;;;;10.32;4.65;;;;;;;41.26;24.14;101264.73;1662424;85;21703;-85
2021/07/25 08:47:21;;;;;;;8.48;5.08;;;;;;;41.04;24.66;101253.39;1633467;86;21094;-83
2021/07/25 08:50:00;;;;;;;14.60;4.80;;;;;;;41.09;24.98;101256.25;1654444;84;21031;-85
2021/07/25 08:52:29;;;;;;;7.42;4.62;;;;;;;41.35;24.36;101255.55;1640700;85;21127;-82
2021/07/25 08:54:57;;;;;;;10.38;5.00;;;;;;;42.05;23.79;101254.07;1648314;84;21069;-89
2021/07/25 08:57:28;;;;;;;11.73;5.20;;;;;;;42.18;23.57;101254.76;1650955;86;21041;-83
2021/07/25 08:59:55;;;;;;;6.97;4.95;;;;;;;41.74;23.79;101249.92;1651522;86;21035;-84
2021/07/25 09:02:28;;;;;;;9.75;4.65;;;;;;;41.03;23.94;101260.23;1651503;86;21070;-88
2021/07/25 09:04:56;;;;;;;15.58;4.03;;;;;;;40.70;23.96;101259.73;1663902;83;21170;-85
2021/07/25 09:07:29;;;;;;;13.35;4.83;;;;;;;41.63;24.33;101249.53;1707278;83;21572;-83
2021/07/25 09:10:09;;;;;;;8.20;4.67;;;;;;;42.31;23.52;101251.25;1727121;82;21554;-90
2021/07/25 09:12:36;;;;;;;8.65;4.83;;;;;;;41.62;23.51;101250.76;1713563;83;21108;-85
2021/07/25 09:15:10;;;;;;;15.98;5.40;;;;;;;41.31;23.95;101246.41;1689586;83;20952;-86
2021/07/25 09:17:36;;;;;;;18.48;5.30;;;;;;;41.31;24.07;101247.82;1658728;85;21182;-84
2021/07/25 09:20:31;;;;;;;10.43;5.15;;;;;;;41.20;23.83;101251.02;1653215;85;22935;-83
2021/07/25 09:23:09;;;;;;;11.78;4.87;;;;;;;41.19;23.61;101258.56;1630016;86;21256;-83
2021/07/25 09:25:54;;;;;;;10.50;5.00;;;;;;;40.74;24.74;101250.53;1650722;86;21462;-86
2021/07/25 09:28:25;;;;;;;8.50;4.92;;;;;;;41.83;23.26;101247.78;1625481;86;21085;-84
2021/07/25 09:30:52;;;;;;;9.48;4.78;;;;;;;42.45;23.19;101250.50;1527253;92;21051;-86
2021/07/25 09:33:31;;;;;;;5.97;4.30;;;;;;;42.33;22.94;101247.94;1523742;92;21106;-84
2021/07/25 09:36:11;;;;;;;11.05;4.72;;;;;;;42.70;22.26;101251.70;1528567;92;21803;-86
2021/07/25 09:38:39;;;;;;;5.80;4.40;;;;;;;42.79;22.53;101256.00;1467785;96;21027;-83
2021/07/25 09:41:24;;;;;;;9.63;4.22;;;;;;;43.50;22.50;101254.99;1450396;97;21034;-87
2021/07/25 09:44:12;;;;;;;7.40;4.50;;;;;;;44.20;21.55;101246.55;1450972;97;21830;-86
2021/07/25 09:46:49;;;;;;;7.70;4.35;;;;;;;44.93;20.90;101250.98;1468170;96;21070;-87
2021/07/25 09:49:17;;;;;;;7.40;4.30;;;;;;;45.24;19.63;101249.17;1467014;96;21336;-87
2021/07/25 09:51:46;;;;;;;9.23;4.78;;;;;;;45.29;20.21;101242.81;1449565;97;21134;-85
2021/07/25 09:54:12;;;;;;;13.88;5.58;;;;;;;44.46;19.66;101246.80;1450832;97;21136;-85
2021/07/25 09:56:38;;;;;;;15.50;4.70;;;;;;;42.77;20.98;101252.05;1440117;97;21818;-84
2021/07/25 09:59:23;;;;;;;12.28;4.65;;;;;;;41.36;21.94;101248.66;1460225;96;21194;-87
2021/07/25 10:01:52;;;;;;;11.22;4.50;;;;;;;41.47;22.53;101250.48;1443731;96;21566;-87
2021/07/25 10:04:24;;;;;;;10.18;5.00;;;;;;;41.74;22.33;101257.01;1449128;97;21039;-86
2021/07/25 10:06:55;;;;;;;8.90;4.75;;;;;;;41.67;22.38;101253.64;1473105;96;21619;-84
2021/07/25 10:09:23;;;;;;;10.75;5.03;;;;;;;40.47;23.17;101252.98;1526506;91;21131;-84
2021/07/25 10:11:57;;;;;;;11.12;5.08;;;;;;;39.60;23.97;101259.53;1554803;90;21593;-84
2021/07/25 10:14:29;;;;;;;9.63;4.33;;;;;;;39.32;23.67;101258.27;1590118;87;21057;-83
2021/07/25 10:16:55;;;;;;;14.33;4.78;;;;;;;39.73;24.42;101249.86;1635742;85;21105;-84
2021/07/25 10:19:34;;;;;;;8.10;4.60;;;;;;;40.22;24.33;101250.95;1627267;85;21109;-86
2021/07/25 10:22:00;;;;;;;9.70;5.05;;;;;;;40.47;24.21;101252.36;1569695;88;21713;-84
2021/07/25 10:24:28;;;;;;;8.00;4.50;;;;;;;40.80;23.50;101255.78;1563732;88;21084;-84
2021/07/25 10:26:57;;;;;;;9.55;4.85;;;;;;;40.09;23.85;101257.94;1568697;89;21104;-85
2021/07/25 10:29:25;;;;;;;8.78;4.72;;;;;;;39.35;24.08;101260.98;1576884;89;21095;-85
2021/07/25 10:31:52;;;;;;;10.53;4.42;;;;;;;39.26;24.11;101260.80;1578343;89;21118;-87
2021/07/25 10:34:21;;;;;;;11.78;4.67;;;;;;;38.70;24.42;101258.14;1607284;84;21153;-86
2021/07/25 10:36:50;;;;;;;8.08;4.67;;;;;;;38.33;24.33;101256.74;1610584;88;21159;-81
2021/07/25 10:39:18;;;;;;;7.72;4.47;;;;;;;38.46;25.35;101258.91;1610224;88;21060;-86
2021/07/25 10:41:50;;;;;;;8.23;4.37;;;;;;;38.62;25.21;101257.51;1614802;88;21529;-85
2021/07/25 10:44:16;;;;;;;;;;;;;;;38.84;24.23;101258.59;1613686;88;21168;-84
2021/07/25 10:46:43;;;;;;;11.68;4.30;;;;;;;38.60;24.44;101258.58;1610262;87;21923;-86
2021/07/25 10:49:15;;;;;;;13.60;4.65;;;;;;;38.16;24.96;101260.11;1590458;88;21100;-86
2021/07/25 10:52:02;;;;;;;13.20;4.65;;;;;;;37.95;25.57;101255.73;1612492;88;22264;-86
2021/07/25 10:54:31;;;;;;;12.13;4.75;;;;;;;37.65;26.64;101261.52;1600485;87;21078;-85
2021/07/25 10:59:55;;;;;;;8.23;4.40;;;;;;;36.81;27.18;101256.30;1534623;91;22225;-85
2021/07/25 11:02:32;;;;;;;10.68;4.62;;;;;;;36.95;26.65;101253.88;1568111;90;21112;-85
2021/07/25 11:05:01;;;;;;;8.98;4.50;;;;;;;37.05;26.34;101260.74;1551011;89;21581;-85
2021/07/25 11:07:33;;;;;;;6.65;4.35;;;;;;;37.05;26.90;101257.94;1533129;91;21131;-87
2021/07/25 11:10:12;;;;;;;11.20;4.58;;;;;;;37.38;27.21;101255.36;1552898;91;21208;-86
2021/07/25 11:12:55;;;;;;;9.85;4.45;;;;;;;37.85;25.78;101263.73;1550880;91;21247;-86
2021/07/25 11:15:32;;;;;;;10.43;4.35;;;;;;;37.82;25.77;101256.16;1551188;91;21148;-86
2021/07/25 11:18:11;;;;;;;7.90;4.25;;;;;;;37.98;25.52;101256.11;1564664;91;21137;-86
2021/07/25 11:21:00;;;;;;;10.72;4.60;;;;;;;37.91;25.85;101252.15;1562712;91;21088;-86
2021/07/25 11:23:33;;;;;;;15.32;5.37;;;;;;;38.02;25.96;101251.97;1562443;91;21067;-84
2021/07/25 11:26:31;;;;;;;7.47;4.47;;;;;;;37.82;25.98;101250.53;1552635;91;21560;-86